createdAt,value
2024-04-11T00:00:52.451Z,11.41
2024-04-11T00:06:15.043Z,11.18
2024-04-11T00:11:19.623Z,9.86
2024-04-11T00:16:22.328Z,9.06
2024-04-11T00:21:25.067Z,8.57
2024-04-11T00:26:27.951Z,8.99
2024-04-11T00:31:30.454Z,11.02
2024-04-11T00:36:33.784Z,11.76
2024-04-11T00:41:37.634Z,10.15
2024-04-11T00:46:41.497Z,8.90
2024-04-11T00:51:45.008Z,8.13
2024-04-11T00:56:47.590Z,8.39
2024-04-11T01:01:50.183Z,10.42
2024-04-11T01:07:08.005Z,11.14
2024-04-11T01:12:15.092Z,9.44
2024-04-11T01:17:19.336Z,8.22
2024-04-11T01:22:22.344Z,7.46
2024-04-11T01:27:25.250Z,8.10
2024-04-11T01:32:29.128Z,10.12
2024-04-11T01:37:32.213Z,11.02
2024-04-11T01:42:35.301Z,9.63
2024-04-11T01:47:40.860Z,8.39
2024-04-11T01:52:43.624Z,9.66
2024-04-11T01:57:46.144Z,11.02
2024-04-11T02:02:50.675Z,10.84
2024-04-11T02:07:53.466Z,9.02
2024-04-11T02:12:58.185Z,8.64
2024-04-11T02:18:03.005Z,10.39
2024-04-11T02:23:08.350Z,10.82
2024-04-11T02:28:10.795Z,9.05
2024-04-11T02:33:13.519Z,7.82
2024-04-11T02:38:16.230Z,8.60
2024-04-11T02:43:19.486Z,10.23
2024-04-11T02:48:22.190Z,10.81
2024-04-11T02:53:24.876Z,9.12
2024-04-11T02:58:28.758Z,7.74
2024-04-11T03:03:35.628Z,8.47
2024-04-11T03:08:42.509Z,10.15
2024-04-11T03:13:45.104Z,10.71
2024-04-11T03:18:47.743Z,9.00
2024-04-11T03:23:51.457Z,7.61
2024-04-11T03:28:54.317Z,8.44
2024-04-11T03:33:58.673Z,10.02
2024-04-11T03:39:02.726Z,10.75
2024-04-11T03:44:05.425Z,9.43
2024-04-11T03:49:07.960Z,7.75
2024-04-11T03:54:13.015Z,7.62
2024-04-11T03:59:15.461Z,9.44
2024-04-11T04:04:20.681Z,10.55
2024-04-11T04:09:23.221Z,10.33
2024-04-11T04:14:26.058Z,8.45
2024-04-11T04:19:28.621Z,7.32
2024-04-11T04:24:31.236Z,8.05
2024-04-11T04:29:39.051Z,10.00
2024-04-11T04:34:41.917Z,11.01
2024-04-11T04:39:45.941Z,9.88
2024-04-11T04:44:49.230Z,8.41
2024-04-11T04:49:54.495Z,8.48
2024-04-11T04:54:56.963Z,10.57
2024-04-11T04:59:59.556Z,11.43
2024-04-11T05:05:04.810Z,10.05
2024-04-11T05:10:07.475Z,8.94
2024-04-11T05:15:13.860Z,10.18
2024-04-11T05:20:24.470Z,11.58
2024-04-11T05:25:33.439Z,10.37
2024-04-11T05:30:41.813Z,9.32
2024-04-11T05:35:44.448Z,9.59
2024-04-11T05:40:47.609Z,11.70
2024-04-11T05:45:51.258Z,11.80
2024-04-11T05:50:53.917Z,10.54
2024-04-11T05:55:58.684Z,9.94
2024-04-11T06:01:07.114Z,11.20
2024-04-11T06:06:14.359Z,12.61
2024-04-11T06:11:18.616Z,11.53
2024-04-11T06:16:23.851Z,10.84
2024-04-11T06:21:34.019Z,12.06
2024-04-11T06:26:37.908Z,13.25
2024-04-11T06:31:41.606Z,12.21
2024-04-11T06:36:48.924Z,11.64
2024-04-11T06:41:53.002Z,11.40
2024-04-11T06:46:55.626Z,11.27
2024-04-11T06:51:58.465Z,11.20
2024-04-11T06:57:04.482Z,11.25
2024-04-11T07:02:10.665Z,11.62
2024-04-11T07:07:13.249Z,13.54
2024-04-11T07:12:29.316Z,13.26
2024-04-11T07:17:33.929Z,12.82
2024-04-11T07:22:45.310Z,12.63
2024-04-11T07:27:47.888Z,12.58
2024-04-11T07:32:52.929Z,12.59
2024-04-11T07:37:58.414Z,12.65
2024-04-11T07:43:09.631Z,12.78
2024-04-11T07:48:19.006Z,12.94
2024-04-11T07:53:27.321Z,13.12
2024-04-11T07:58:30.035Z,13.24
2024-04-11T08:03:35.845Z,13.40
2024-04-11T08:08:38.761Z,13.63
2024-04-11T08:13:43.414Z,13.82
2024-04-11T08:18:48.299Z,14.00
2024-04-11T08:23:51.076Z,14.21
2024-04-11T08:28:56.847Z,14.49
2024-04-11T08:33:59.629Z,14.65
2024-04-11T08:39:05.820Z,14.88
2024-04-11T08:44:08.765Z,15.13
2024-04-11T08:49:11.815Z,15.21
2024-04-11T08:54:17.634Z,15.28
2024-04-11T08:59:25.066Z,15.33
2024-04-11T09:04:29.198Z,15.42
2024-04-11T09:09:32.533Z,15.51
2024-04-11T09:14:36.254Z,15.71
2024-04-11T09:19:41.507Z,16.03
2024-04-11T09:24:45.269Z,16.33
2024-04-11T09:29:48.077Z,16.69
2024-04-11T09:34:54.420Z,17.09
2024-04-11T09:39:58.267Z,17.36
2024-04-11T09:45:04.600Z,17.56
2024-04-11T09:50:10.784Z,17.55
2024-04-11T09:55:16.512Z,17.31
2024-04-11T10:00:38.034Z,17.36
2024-04-11T10:05:47.604Z,17.51
2024-04-11T10:10:59.430Z,17.35
2024-04-11T10:16:05.992Z,17.12
2024-04-11T10:21:13.106Z,16.92
2024-04-11T10:26:16.125Z,16.92
2024-04-11T10:31:23.464Z,17.04
2024-04-11T10:36:34.965Z,17.37
2024-04-11T10:41:39.061Z,17.61
2024-04-11T10:46:42.423Z,17.85
2024-04-11T10:51:51.937Z,18.20
2024-04-11T10:56:55.738Z,18.59
2024-04-11T11:02:10.705Z,19.02
2024-04-11T11:07:14.588Z,19.39
2024-04-11T11:12:17.957Z,19.57
2024-04-11T11:17:22.054Z,19.60
2024-04-11T11:22:40.172Z,19.78
2024-04-11T11:27:51.430Z,19.54
2024-04-11T11:33:20.617Z,19.28
2024-04-11T11:38:36.136Z,19.42
2024-04-11T11:44:00.392Z,19.08
2024-04-11T11:49:04.870Z,19.07
2024-04-11T11:54:13.852Z,19.36
2024-04-11T11:59:21.206Z,19.89
2024-04-11T12:04:24.269Z,20.19
2024-04-11T12:09:32.716Z,20.19
2024-04-11T12:14:36.459Z,20.43
2024-04-11T12:19:41.398Z,20.68
2024-04-11T12:24:46.182Z,20.67
2024-04-11T12:29:50.232Z,20.33
2024-04-11T12:34:56.506Z,19.77
2024-04-11T12:39:59.174Z,19.30
2024-04-11T12:45:09.016Z,19.11
2024-04-11T12:50:16.202Z,19.42
2024-04-11T12:55:25.596Z,19.75
2024-04-11T13:00:43.838Z,19.85
2024-04-11T13:05:52.932Z,19.75
2024-04-11T13:10:56.488Z,19.75
2024-04-11T13:16:01.786Z,19.82
2024-04-11T13:21:15.244Z,20.05
2024-04-11T13:26:18.649Z,20.26
2024-04-11T13:31:22.127Z,20.14
2024-04-11T13:36:25.594Z,19.84
2024-04-11T13:41:49.363Z,19.69
2024-04-11T13:46:52.337Z,19.59
2024-04-11T13:51:55.258Z,19.49
2024-04-11T13:57:01.813Z,19.36
2024-04-11T14:02:10.895Z,19.47
2024-04-11T14:07:20.802Z,19.70
2024-04-11T14:12:25.805Z,19.90
2024-04-11T14:17:29.496Z,20.32
2024-04-11T14:22:37.145Z,20.66
2024-04-11T14:27:39.911Z,21.28
2024-04-11T14:32:51.581Z,21.58
2024-04-11T14:37:57.281Z,21.48
2024-04-11T14:43:04.467Z,21.67
2024-04-11T14:48:23.682Z,21.80
2024-04-11T14:53:26.797Z,22.07
2024-04-11T14:58:32.911Z,22.19
2024-04-11T15:03:42.288Z,21.83
2024-04-11T15:08:49.761Z,21.39
2024-04-11T15:13:54.640Z,20.83
2024-04-11T15:18:57.435Z,20.43
2024-04-11T15:24:00.769Z,20.24
2024-04-11T15:29:13.371Z,20.38
2024-04-11T15:34:18.020Z,20.93
2024-04-11T15:39:29.641Z,21.21
2024-04-11T15:44:38.399Z,20.99
2024-04-11T15:49:45.437Z,20.26
2024-04-11T15:55:12.789Z,19.37
2024-04-11T16:00:28.348Z,18.62
2024-04-11T16:05:35.652Z,18.09
2024-04-11T16:10:40.069Z,17.63
2024-04-11T16:15:44.806Z,17.28
2024-04-11T16:20:50.347Z,17.00
2024-04-11T16:25:57.389Z,16.73
2024-04-11T16:31:23.150Z,16.53
2024-04-11T16:36:31.554Z,16.31
2024-04-11T16:41:40.752Z,16.15
2024-04-11T16:46:52.449Z,16.02
2024-04-11T16:51:55.050Z,15.89
2024-04-11T16:56:58.678Z,15.74
2024-04-11T17:02:04.066Z,15.60
2024-04-11T17:07:19.483Z,15.46
2024-04-11T17:12:31.112Z,15.33
2024-04-11T17:17:36.585Z,15.21
2024-04-11T17:22:51.556Z,15.10
2024-04-11T17:28:13.268Z,15.01
2024-04-11T17:33:32.371Z,14.91
2024-04-11T17:38:48.978Z,14.80
2024-04-11T17:43:57.436Z,14.72
2024-04-11T17:49:17.196Z,14.65
2024-04-11T17:54:20.010Z,14.57
2024-04-11T17:59:30.776Z,14.50
2024-04-11T18:04:38.088Z,14.44
2024-04-11T18:09:44.822Z,14.39
2024-04-11T18:14:47.731Z,14.36
2024-04-11T18:19:57.598Z,14.33
2024-04-11T18:25:07.394Z,14.31
2024-04-11T18:30:16.898Z,14.29
2024-04-11T18:35:19.840Z,14.29
2024-04-11T18:40:25.025Z,14.30
2024-04-11T18:45:37.248Z,14.28
2024-04-11T18:50:39.953Z,14.26
2024-04-11T18:55:50.510Z,14.24
2024-04-11T19:00:58.333Z,14.22
2024-04-11T19:06:06.325Z,14.18
2024-04-11T19:11:09.968Z,14.15
2024-04-11T19:16:19.717Z,14.13
2024-04-11T19:21:23.466Z,14.10
2024-04-11T19:26:28.029Z,14.08
2024-04-11T19:31:33.748Z,14.04
2024-04-11T19:36:38.686Z,14.01
2024-04-11T19:41:43.436Z,13.96
2024-04-11T19:46:47.234Z,13.90
2024-04-11T19:51:51.531Z,13.86
2024-04-11T19:57:06.767Z,13.83
2024-04-11T20:02:10.634Z,13.82
2024-04-11T20:07:18.042Z,13.82
2024-04-11T20:12:29.688Z,13.83
2024-04-11T20:17:32.861Z,13.84
2024-04-11T20:22:37.836Z,13.84
2024-04-11T20:27:47.785Z,13.83
2024-04-11T20:32:52.200Z,13.83
2024-04-11T20:38:17.045Z,13.82
2024-04-11T20:43:37.812Z,13.80
2024-04-11T20:48:57.109Z,13.76
2024-04-11T20:54:20.883Z,13.72
2024-04-11T20:59:43.104Z,13.68
2024-04-11T21:05:04.348Z,13.62
2024-04-11T21:10:26.073Z,13.46
2024-04-11T21:15:47.971Z,13.26
2024-04-11T21:21:09.306Z,13.10
2024-04-11T21:26:30.715Z,12.99
2024-04-11T21:31:53.839Z,12.90
2024-04-11T21:37:03.803Z,12.86
2024-04-11T21:42:09.717Z,12.82
2024-04-11T21:47:15.131Z,12.74
2024-04-11T21:52:20.324Z,12.67
2024-04-11T21:57:27.787Z,12.57
2024-04-11T22:02:30.905Z,12.52
2024-04-11T22:07:35.460Z,12.57
2024-04-11T22:12:42.566Z,12.61
2024-04-11T22:17:53.381Z,12.65
2024-04-11T22:23:01.094Z,12.65
2024-04-11T22:28:03.955Z,12.63
2024-04-11T22:33:18.923Z,12.65
2024-04-11T22:38:26.496Z,12.66
2024-04-11T22:43:35.928Z,12.68
2024-04-11T22:48:45.014Z,12.68
2024-04-11T22:53:50.730Z,12.69
2024-04-11T22:58:59.899Z,12.71
2024-04-11T23:04:02.485Z,12.71
2024-04-11T23:09:10.523Z,12.70
2024-04-11T23:14:13.095Z,12.67
2024-04-11T23:19:20.932Z,12.64
2024-04-11T23:24:23.444Z,12.62
2024-04-11T23:29:35.605Z,12.60
2024-04-11T23:34:39.501Z,12.59
2024-04-11T23:39:44.234Z,12.59
2024-04-11T23:44:48.790Z,12.58
2024-04-11T23:49:51.259Z,12.60
2024-04-11T23:54:53.792Z,12.60
2024-04-11T23:59:56.403Z,12.59
